• Join FlightAware (Why Join?)
  • Login
  • US Flag 
03:11PM EST


 

Airport Tracker/Info


-or-


 

Live Flight TrackerFlight Track Log ✈ UAL4191 ✈ 24-Apr-2013 ✈ KIAH - KCHS

Flight Track Log - Related Links

Times and Time Zones

All times are in EDT time to prevent confusion due to time zone crossing. See the UAL4191 flight status page for this flight to view local times or setup timezone preferences in your user account.

Time Position Orientation Groundspeed Altitude Reporting Facility
EDT Latitude Longitude Course Direction KTS MPH feet Rate Location/Type
03:31PM 29.9764 -95.2983 131° Southeast 177 204 500  Level Houston Center
03:32PM 29.9478 -95.2608 131° Southeast 219 252 2,200 2,160 Climbing Houston Center
03:33PM 29.8894 -95.2197 149° Southeast 253 291 4,500 2,460 Climbing Houston Center
03:34PM 29.8578 -95.1514 118° Southeast 284 327 7,000 2,220 Climbing Houston Center
03:35PM 29.8739 -95.0547 79° East 288 331 9,400 1,920 Climbing Houston Center
03:36PM 29.8939 -94.9317 79° East 324 373 11,500 1,680 Climbing Houston Center
03:37PM 29.9125 -94.8197 79° East 350 403 13,000 1,440 Climbing Houston Center
03:38PM 29.9322 -94.7000 79° East 374 430 14,500 1,500 Climbing Houston Center
03:40PM 29.9522 -94.5781 79° East 386 444 16,100 1,500 Climbing Houston Center
03:41PM 29.9747 -94.4444 79° East 396 456 17,600 1,380 Climbing Houston Center
03:42PM 29.9947 -94.3164 80° East 405 466 19,000 1,380 Climbing Houston Center
03:43PM 30.0108 -94.1875 82° East 407 468 20,500 1,440 Climbing Houston Center
03:44PM 30.0275 -94.0567 82° East 412 474 22,000 1,560 Climbing Houston Center
03:45PM 30.0458 -93.9008 82° East 410 472 23,800 1,380 Climbing Houston Center
03:46PM 30.0628 -93.7697 81° East 416 479 24,900 960 Climbing Houston Center
03:47PM 30.0781 -93.6350 83° East 426 490 25,900 960 Climbing Houston Center
03:48PM 30.0936 -93.4972 83° East 439 505 27,000 1,080 Climbing Houston Center
03:49PM 30.1125 -93.3303 83° East 445 512 28,200 1,020 Climbing Houston Center
03:50PM 30.1297 -93.1900 82° East 446 513 29,200 960 Climbing Houston Center
03:51PM 30.1506 -93.0494 80° East 447 514 30,200 960 Climbing Houston Center
03:52PM 30.1794 -92.9092 77° East 450 518 31,200 960 Climbing Houston Center
03:53PM 30.2067 -92.7669 77° East 454 522 32,200 1,020 Climbing Houston Center
03:54PM 30.2406 -92.5936 77° East 460 529 33,400 1,020 Climbing Houston Center
03:55PM 30.2681 -92.4500 77° East 461 531 34,400 720 Climbing Houston Center
03:56PM 30.2986 -92.2922 77° East 462 532 35,000 240 Climbing Houston Center
03:57PM 30.3264 -92.1422 78° East 473 544 35,000  Level Houston Center
03:58PM 30.3575 -91.9853 77° East 494 568 35,000  Level Houston Center
03:59PM 30.3861 -91.8250 78° East 506 582 35,000  Level Houston Center
04:00PM 30.4208 -91.6417 78° East 515 593 35,000  Level Houston Center
04:01PM 30.4522 -91.4775 77° East 520 598 35,000  Level Houston Center
04:02PM 30.4836 -91.3147 77° East 519 597 35,000  Level Houston Center
04:03PM 30.5475 -91.1656 64° Northeast 513 590 35,000  Level Houston Center
04:04PM 30.6164 -91.0200 61° Northeast 514 592 35,000  Level Houston Center
04:05PM 30.7000 -90.8447 61° Northeast 515 593 35,000  Level Houston Center
04:06PM 30.7703 -90.6983 61° Northeast 518 596 35,000  Level Houston Center
04:07PM 30.8389 -90.5522 61° Northeast 515 593 35,000  Level Houston Center
04:09PM 30.9083 -90.4047 61° Northeast 516 594 35,000  Level Houston Center
04:10PM 30.9778 -90.2569 61° Northeast 518 596 35,000  Level Houston Center
04:11PM 31.0461 -90.1081 62° Northeast 519 597 35,000  Level Houston Center
04:12PM 31.1156 -89.9603 61° Northeast 517 595 35,000  Level Houston Center
04:13PM 31.1983 -89.7800 62° Northeast 521 600 35,000  Level Houston Center
04:14PM 31.2689 -89.6317 61° Northeast 521 600 35,000  Level Houston Center
04:15PM 31.3633 -89.5383 40° Northeast 506 582 35,000  Level Houston Center
04:16PM 31.5083 -89.4353 31° Northeast 504 580 35,000  Level Houston Center
04:17PM 31.6278 -89.3489 32° Northeast 503 579 35,000  Level Houston Center
04:18PM 31.7381 -89.2703 31° Northeast 505 581 35,000  Level Memphis Center
04:19PM 31.8606 -89.1808 32° Northeast 510 587 35,000  Level Memphis Center
04:20PM 31.9786 -89.0961 31° Northeast 506 582 35,000  Level Memphis Center
04:21PM 32.0906 -89.0161 31° Northeast 516 594 35,000  Level Memphis Center
04:22PM 32.2106 -88.9283 32° Northeast 510 587 35,000  Level Memphis Center
04:23PM 32.3306 -88.8381 32° Northeast 510 587 35,000  Level Memphis Center
04:24PM 32.4356 -88.7228 43° Northeast 510 587 35,000  Level Memphis Center
04:25PM 32.5297 -88.5881 50° Northeast 510 587 35,000  Level Memphis Center
04:26PM 32.6219 -88.4556 50° Northeast 515 593 35,000  Level Memphis Center
04:27PM 32.7178 -88.3178 50° Northeast 525 604 35,000  Level Memphis Center
04:28PM 32.8719 -88.0850 52° Northeast 534 615 35,000  Level Atlanta Center
04:29PM 32.9769 -87.9364 50° Northeast 539 620 35,000  Level Atlanta Center
04:30PM 33.0581 -87.8136 52° Northeast 527 606 35,000  Level Atlanta Center
04:31PM 33.1500 -87.6761 51° Northeast 522 601 35,000  Level Atlanta Center
04:32PM 33.2436 -87.5408 50° Northeast 522 601 35,000  Level Atlanta Center
04:33PM 33.3328 -87.4053 52° Northeast 522 601 35,000  Level Atlanta Center
04:34PM 33.4222 -87.2669 52° Northeast 522 601 35,000  Level Atlanta Center
04:35PM 33.5156 -87.1308 51° Northeast 522 601 35,000  Level Atlanta Center
04:36PM 33.6044 -86.9944 52° Northeast 522 601 35,000  Level Atlanta Center
04:37PM 33.6664 -86.8417 64° Northeast 522 601 35,000  Level Atlanta Center
04:38PM 33.6681 -86.6647 89° East 501 577 35,000  Level Atlanta Center
04:39PM 33.6656 -86.4872 91° East 507 583 35,000  Level Atlanta Center
04:40PM 33.6647 -86.3100 90° East 519 597 35,000  Level Atlanta Center
04:41PM 33.6617 -86.1378 91° East 519 597 35,000  Level Atlanta Center
04:42PM 33.6603 -85.9606 90° East 519 597 35,000  Level Atlanta Center
04:43PM 33.6589 -85.7758 90° East 519 597 35,000  Level Atlanta Center
04:44PM 33.6550 -85.5986 91° East 520 598 35,000  Level Atlanta Center
04:45PM 33.6528 -85.4264 91° East 520 598 35,000  Level Atlanta Center
04:46PM 33.6486 -85.2492 92° East 520 598 35,000  Level Atlanta Center
04:47PM 33.6436 -85.0894 92° East 520 598 35,000  Level Atlanta Center
04:48PM 33.6450 -84.9147 89° East 520 598 35,000  Level Atlanta Center
04:49PM 33.6525 -84.7200 87° East 520 598 35,000  Level Atlanta Center
04:50PM 33.6556 -84.5456 89° East 530 610 35,000  Level Atlanta Center
04:51PM 33.6581 -84.3881 89° East 525 604 35,000  Level Atlanta Center
04:52PM 33.6689 -84.2186 86° East 520 598 35,000  Level Atlanta Center
04:53PM 33.6711 -84.0389 89° East 525 604 35,000  Level Atlanta Center
04:54PM 33.6753 -83.8667 88° East 525 604 35,000  Level Atlanta Center
04:55PM 33.6811 -83.6942 88° East 513 590 35,000  Level Atlanta Center
04:56PM 33.6847 -83.5244 88° East 513 590 35,000  Level Atlanta Center
04:57PM 33.6881 -83.3547 89° East 508 585 35,000  Level Atlanta Center
04:58PM 33.6931 -83.1825 88° East 508 585 35,000 -300 Level Atlanta Center
04:59PM 33.6919 -83.0200 90° East 501 577 34,400 -720 Descending Atlanta Center
05:00PM 33.6986 -82.8403 87° East 489 563 33,600 -900 Descending Atlanta Center
05:01PM 33.7031 -82.6731 88° East 489 563 32,600 -960 Descending Atlanta Center
05:02PM 33.7011 -82.5081 91° East 489 563 31,700 -960 Descending Atlanta Center
05:03PM 33.6844 -82.3436 97° East 494 568 30,700 -900 Descending Atlanta Center
05:04PM 33.6572 -82.1994 103° East 499 574 30,000 -360 Descending Atlanta Center
05:05PM 33.6297 -82.0378 102° East 492 566 30,000 -420 Level Atlanta Center
05:07PM 33.5858 -81.8603 106° East 481 554 29,200 -840 Descending Jacksonville Center
05:08PM 33.5386 -81.7039 110° East 481 554 28,200 -1,200 Descending Jacksonville Center
05:09PM 33.4933 -81.5478 109° East 486 559 26,800 -1,740 Descending Jacksonville Center
05:10PM 33.4497 -81.3964 109° East 486 559 24,800 -1,980 Descending Jacksonville Center
05:11PM 33.4064 -81.2503 110° East 481 554 22,900 -2,160 Descending Jacksonville Center
05:12PM 33.3625 -81.1044 110° East 476 548 20,500 -2,760 Descending Jacksonville Center
05:13PM 33.3208 -80.9636 109° East 460 529 17,400 -3,180 Descending Jacksonville Center
05:14PM 33.2811 -80.8328 110° East 438 504 14,200 -3,000 Descending Jacksonville Center
05:15PM 33.2458 -80.7119 109° East 415 478 11,400 -1,680 Descending Jacksonville Center
05:16PM 33.2106 -80.6061 112° Southeast 375 432 10,900 -960 Descending Jacksonville Center
05:17PM 33.1797 -80.5175 113° Southeast 325 374 9,500 -1,500 Descending Jacksonville Center
05:18PM 33.1694 -80.4233 97° East 292 336 8,000 -1,500 Descending Jacksonville Center
05:19PM 33.1694 -80.3242 90° East 287 330 6,600 -1,680 Descending Jacksonville Center
05:20PM 33.1633 -80.2275 94° East 287 330 4,700 -1,680 Descending Jacksonville Center
05:21PM 33.1367 -80.1514 113° Southeast 271 312 3,300 -1,200 Descending Jacksonville Center
05:22PM 33.1122 -80.0753 111° Southeast 249 287 2,300 -900 Descending Jacksonville Center
05:23PM 33.0919 -80.0117 111° Southeast 223 257 1,600 -720 Descending Jacksonville Center